sensor_id;sensor_type;location;lat;lon;timestamp;temperature;humidity
12426;DHT22;6277;49.824;9.562;2023-08-08T00:00:34;16.30;72.80
12426;DHT22;6277;49.824;9.562;2023-08-08T00:03:00;16.30;72.80
12426;DHT22;6277;49.824;9.562;2023-08-08T00:05:26;16.30;72.80
12426;DHT22;6277;49.824;9.562;2023-08-08T00:07:51;16.20;72.70
12426;DHT22;6277;49.824;9.562;2023-08-08T00:10:17;16.20;72.70
12426;DHT22;6277;49.824;9.562;2023-08-08T00:12:43;16.20;72.70
12426;DHT22;6277;49.824;9.562;2023-08-08T00:15:08;16.10;72.60
12426;DHT22;6277;49.824;9.562;2023-08-08T00:17:34;16.10;72.60
12426;DHT22;6277;49.824;9.562;2023-08-08T00:20:00;16.00;72.60
12426;DHT22;6277;49.824;9.562;2023-08-08T00:22:25;16.00;72.80
12426;DHT22;6277;49.824;9.562;2023-08-08T00:24:51;15.90;72.90
12426;DHT22;6277;49.824;9.562;2023-08-08T00:27:16;15.90;73.00
12426;DHT22;6277;49.824;9.562;2023-08-08T00:29:42;15.80;73.10
12426;DHT22;6277;49.824;9.562;2023-08-08T00:32:07;15.80;73.30
12426;DHT22;6277;49.824;9.562;2023-08-08T00:34:33;15.70;73.40
12426;DHT22;6277;49.824;9.562;2023-08-08T00:36:59;15.70;73.50
12426;DHT22;6277;49.824;9.562;2023-08-08T00:39:24;15.70;73.50
12426;DHT22;6277;49.824;9.562;2023-08-08T00:41:50;15.70;73.60
12426;DHT22;6277;49.824;9.562;2023-08-08T00:44:15;15.70;73.70
12426;DHT22;6277;49.824;9.562;2023-08-08T00:46:41;15.70;73.80
12426;DHT22;6277;49.824;9.562;2023-08-08T00:49:07;15.70;73.90
12426;DHT22;6277;49.824;9.562;2023-08-08T00:51:32;15.70;73.90
12426;DHT22;6277;49.824;9.562;2023-08-08T00:53:58;15.70;74.00
12426;DHT22;6277;49.824;9.562;2023-08-08T00:56:25;15.70;74.10
12426;DHT22;6277;49.824;9.562;2023-08-08T00:58:51;15.70;74.10
12426;DHT22;6277;49.824;9.562;2023-08-08T01:01:17;15.80;74.10
12426;DHT22;6277;49.824;9.562;2023-08-08T01:03:43;15.80;74.10
12426;DHT22;6277;49.824;9.562;2023-08-08T01:06:31;15.80;74.10
12426;DHT22;6277;49.824;9.562;2023-08-08T01:09:18;15.80;73.90
12426;DHT22;6277;49.824;9.562;2023-08-08T01:11:47;15.80;74.00
12426;DHT22;6277;49.824;9.562;2023-08-08T01:14:16;15.80;74.00
12426;DHT22;6277;49.824;9.562;2023-08-08T01:16:44;15.80;73.90
12426;DHT22;6277;49.824;9.562;2023-08-08T01:19:15;15.80;73.90
12426;DHT22;6277;49.824;9.562;2023-08-08T01:21:45;15.80;73.90
12426;DHT22;6277;49.824;9.562;2023-08-08T01:24:20;15.80;74.00
12426;DHT22;6277;49.824;9.562;2023-08-08T01:26:47;15.80;73.90
12426;DHT22;6277;49.824;9.562;2023-08-08T01:29:12;15.80;74.00
12426;DHT22;6277;49.824;9.562;2023-08-08T01:31:38;15.80;74.20
12426;DHT22;6277;49.824;9.562;2023-08-08T01:34:04;15.80;74.20
12426;DHT22;6277;49.824;9.562;2023-08-08T01:36:35;15.80;74.20
12426;DHT22;6277;49.824;9.562;2023-08-08T01:39:02;15.90;74.20
12426;DHT22;6277;49.824;9.562;2023-08-08T01:41:32;15.90;74.20
12426;DHT22;6277;49.824;9.562;2023-08-08T01:43:58;15.90;74.00
12426;DHT22;6277;49.824;9.562;2023-08-08T01:46:25;15.90;74.00
12426;DHT22;6277;49.824;9.562;2023-08-08T01:48:51;15.90;74.00
12426;DHT22;6277;49.824;9.562;2023-08-08T01:51:16;15.80;73.90
12426;DHT22;6277;49.824;9.562;2023-08-08T01:53:42;15.80;73.90
12426;DHT22;6277;49.824;9.562;2023-08-08T01:56:07;15.80;73.90
12426;DHT22;6277;49.824;9.562;2023-08-08T01:58:33;15.70;73.90
12426;DHT22;6277;49.824;9.562;2023-08-08T02:00:59;15.70;74.00
12426;DHT22;6277;49.824;9.562;2023-08-08T02:03:24;15.70;74.00
12426;DHT22;6277;49.824;9.562;2023-08-08T02:05:50;15.70;74.00
12426;DHT22;6277;49.824;9.562;2023-08-08T02:08:15;15.70;74.10
12426;DHT22;6277;49.824;9.562;2023-08-08T02:10:42;15.60;74.10
12426;DHT22;6277;49.824;9.562;2023-08-08T02:13:07;15.60;74.10
12426;DHT22;6277;49.824;9.562;2023-08-08T02:15:33;15.60;74.10
12426;DHT22;6277;49.824;9.562;2023-08-08T02:17:59;15.50;74.10
12426;DHT22;6277;49.824;9.562;2023-08-08T02:20:26;15.50;74.10
12426;DHT22;6277;49.824;9.562;2023-08-08T02:22:51;15.50;74.20
12426;DHT22;6277;49.824;9.562;2023-08-08T02:25:17;15.40;74.20
12426;DHT22;6277;49.824;9.562;2023-08-08T02:27:42;15.40;74.30
12426;DHT22;6277;49.824;9.562;2023-08-08T02:30:08;15.40;74.40
12426;DHT22;6277;49.824;9.562;2023-08-08T02:32:34;15.40;74.40
12426;DHT22;6277;49.824;9.562;2023-08-08T02:34:59;15.40;74.50
12426;DHT22;6277;49.824;9.562;2023-08-08T02:37:25;15.40;74.60
12426;DHT22;6277;49.824;9.562;2023-08-08T02:39:50;15.30;74.60
12426;DHT22;6277;49.824;9.562;2023-08-08T02:42:16;15.30;74.70
12426;DHT22;6277;49.824;9.562;2023-08-08T02:44:41;15.30;74.80
12426;DHT22;6277;49.824;9.562;2023-08-08T02:47:07;15.30;74.90
12426;DHT22;6277;49.824;9.562;2023-08-08T02:49:32;15.30;75.00
12426;DHT22;6277;49.824;9.562;2023-08-08T02:51:59;15.30;75.10
12426;DHT22;6277;49.824;9.562;2023-08-08T02:54:25;15.40;75.20
12426;DHT22;6277;49.824;9.562;2023-08-08T02:56:50;15.40;75.40
12426;DHT22;6277;49.824;9.562;2023-08-08T02:59:16;15.40;75.40
12426;DHT22;6277;49.824;9.562;2023-08-08T03:01:42;15.40;75.50
12426;DHT22;6277;49.824;9.562;2023-08-08T03:04:07;15.50;75.50
12426;DHT22;6277;49.824;9.562;2023-08-08T03:06:33;15.50;75.60
12426;DHT22;6277;49.824;9.562;2023-08-08T03:08:59;15.50;75.50
12426;DHT22;6277;49.824;9.562;2023-08-08T03:11:24;15.50;75.60
12426;DHT22;6277;49.824;9.562;2023-08-08T03:13:50;15.60;75.60
12426;DHT22;6277;49.824;9.562;2023-08-08T03:16:15;15.60;75.60
12426;DHT22;6277;49.824;9.562;2023-08-08T03:18:41;15.70;75.70
12426;DHT22;6277;49.824;9.562;2023-08-08T03:21:06;15.70;75.70
12426;DHT22;6277;49.824;9.562;2023-08-08T03:23:32;15.70;75.70
12426;DHT22;6277;49.824;9.562;2023-08-08T03:25:57;15.70;75.60
12426;DHT22;6277;49.824;9.562;2023-08-08T03:28:23;15.80;75.50
12426;DHT22;6277;49.824;9.562;2023-08-08T03:30:49;15.80;75.30
12426;DHT22;6277;49.824;9.562;2023-08-08T03:33:14;15.80;75.10
12426;DHT22;6277;49.824;9.562;2023-08-08T03:35:40;15.80;74.90
12426;DHT22;6277;49.824;9.562;2023-08-08T03:38:05;15.80;74.80
12426;DHT22;6277;49.824;9.562;2023-08-08T03:40:31;15.70;74.70
12426;DHT22;6277;49.824;9.562;2023-08-08T03:42:57;15.70;74.70
12426;DHT22;6277;49.824;9.562;2023-08-08T03:45:22;15.70;74.70
12426;DHT22;6277;49.824;9.562;2023-08-08T03:47:48;15.60;74.60
12426;DHT22;6277;49.824;9.562;2023-08-08T03:50:13;15.50;74.50
12426;DHT22;6277;49.824;9.562;2023-08-08T03:52:39;15.50;74.50
12426;DHT22;6277;49.824;9.562;2023-08-08T03:55:05;15.50;74.60
12426;DHT22;6277;49.824;9.562;2023-08-08T03:57:31;15.40;74.60
12426;DHT22;6277;49.824;9.562;2023-08-08T03:59:56;15.40;74.60
12426;DHT22;6277;49.824;9.562;2023-08-08T04:02:22;15.40;74.60
12426;DHT22;6277;49.824;9.562;2023-08-08T04:04:47;15.30;74.70
12426;DHT22;6277;49.824;9.562;2023-08-08T04:07:13;15.30;74.70
12426;DHT22;6277;49.824;9.562;2023-08-08T04:09:39;15.20;74.60
12426;DHT22;6277;49.824;9.562;2023-08-08T04:12:04;15.20;74.70
12426;DHT22;6277;49.824;9.562;2023-08-08T04:14:30;15.20;74.70
12426;DHT22;6277;49.824;9.562;2023-08-08T04:16:55;15.10;74.70
12426;DHT22;6277;49.824;9.562;2023-08-08T04:19:21;15.10;74.70
12426;DHT22;6277;49.824;9.562;2023-08-08T04:21:46;15.00;74.60
12426;DHT22;6277;49.824;9.562;2023-08-08T04:24:12;15.00;74.70
12426;DHT22;6277;49.824;9.562;2023-08-08T04:26:38;14.90;74.70
12426;DHT22;6277;49.824;9.562;2023-08-08T04:29:05;14.90;74.80
12426;DHT22;6277;49.824;9.562;2023-08-08T04:31:30;14.90;74.90
12426;DHT22;6277;49.824;9.562;2023-08-08T04:33:56;14.80;75.00
12426;DHT22;6277;49.824;9.562;2023-08-08T04:36:26;14.80;75.10
12426;DHT22;6277;49.824;9.562;2023-08-08T04:38:51;14.80;75.20
12426;DHT22;6277;49.824;9.562;2023-08-08T04:41:17;14.80;75.40
12426;DHT22;6277;49.824;9.562;2023-08-08T04:43:42;14.80;75.50
12426;DHT22;6277;49.824;9.562;2023-08-08T04:46:08;14.80;75.60
12426;DHT22;6277;49.824;9.562;2023-08-08T04:48:35;14.70;75.70
12426;DHT22;6277;49.824;9.562;2023-08-08T04:51:00;14.70;75.80
12426;DHT22;6277;49.824;9.562;2023-08-08T04:53:26;14.70;76.00
12426;DHT22;6277;49.824;9.562;2023-08-08T04:55:51;14.80;76.10
12426;DHT22;6277;49.824;9.562;2023-08-08T04:58:18;14.80;76.30
12426;DHT22;6277;49.824;9.562;2023-08-08T05:00:44;14.80;76.40
12426;DHT22;6277;49.824;9.562;2023-08-08T05:03:09;14.80;76.50
12426;DHT22;6277;49.824;9.562;2023-08-08T05:05:35;14.90;76.60
12426;DHT22;6277;49.824;9.562;2023-08-08T05:08:00;14.90;76.60
12426;DHT22;6277;49.824;9.562;2023-08-08T05:10:26;15.00;76.70
12426;DHT22;6277;49.824;9.562;2023-08-08T05:12:52;15.00;76.70
12426;DHT22;6277;49.824;9.562;2023-08-08T05:15:17;15.00;76.70
12426;DHT22;6277;49.824;9.562;2023-08-08T05:17:43;15.10;76.80
12426;DHT22;6277;49.824;9.562;2023-08-08T05:20:09;15.10;77.00
12426;DHT22;6277;49.824;9.562;2023-08-08T05:22:35;15.20;76.90
12426;DHT22;6277;49.824;9.562;2023-08-08T05:25:00;15.20;76.90
12426;DHT22;6277;49.824;9.562;2023-08-08T05:27:26;15.20;76.90
12426;DHT22;6277;49.824;9.562;2023-08-08T05:29:52;15.30;77.00
12426;DHT22;6277;49.824;9.562;2023-08-08T05:32:17;15.30;77.00
12426;DHT22;6277;49.824;9.562;2023-08-08T05:34:43;15.40;77.00
12426;DHT22;6277;49.824;9.562;2023-08-08T05:37:08;15.40;77.10
12426;DHT22;6277;49.824;9.562;2023-08-08T05:39:34;15.40;77.10
12426;DHT22;6277;49.824;9.562;2023-08-08T05:41:59;15.50;77.20
12426;DHT22;6277;49.824;9.562;2023-08-08T05:44:25;15.50;77.20
12426;DHT22;6277;49.824;9.562;2023-08-08T05:46:51;15.60;77.20
12426;DHT22;6277;49.824;9.562;2023-08-08T05:49:17;15.60;77.20
12426;DHT22;6277;49.824;9.562;2023-08-08T05:51:43;15.70;77.20
12426;DHT22;6277;49.824;9.562;2023-08-08T05:54:08;15.70;77.20
12426;DHT22;6277;49.824;9.562;2023-08-08T05:56:35;15.80;77.50
12426;DHT22;6277;49.824;9.562;2023-08-08T05:59:02;15.80;77.10
12426;DHT22;6277;49.824;9.562;2023-08-08T06:01:27;15.90;77.20
12426;DHT22;6277;49.824;9.562;2023-08-08T06:03:53;15.90;77.20
12426;DHT22;6277;49.824;9.562;2023-08-08T06:06:18;16.00;77.30
12426;DHT22;6277;49.824;9.562;2023-08-08T06:08:44;16.00;77.30
12426;DHT22;6277;49.824;9.562;2023-08-08T06:11:09;16.10;77.30
12426;DHT22;6277;49.824;9.562;2023-08-08T06:13:36;16.20;77.30
12426;DHT22;6277;49.824;9.562;2023-08-08T06:16:02;16.20;77.90
12426;DHT22;6277;49.824;9.562;2023-08-08T06:18:33;16.30;77.20
12426;DHT22;6277;49.824;9.562;2023-08-08T06:20:59;16.40;77.30
12426;DHT22;6277;49.824;9.562;2023-08-08T06:23:24;16.40;77.10
12426;DHT22;6277;49.824;9.562;2023-08-08T06:25:50;16.50;77.10
12426;DHT22;6277;49.824;9.562;2023-08-08T06:28:16;16.50;77.10
12426;DHT22;6277;49.824;9.562;2023-08-08T06:30:41;16.60;77.10
12426;DHT22;6277;49.824;9.562;2023-08-08T06:33:07;16.70;77.10
12426;DHT22;6277;49.824;9.562;2023-08-08T06:35:33;16.70;77.10
12426;DHT22;6277;49.824;9.562;2023-08-08T06:37:58;16.80;77.00
12426;DHT22;6277;49.824;9.562;2023-08-08T06:40:24;16.90;77.00
12426;DHT22;6277;49.824;9.562;2023-08-08T06:42:49;16.90;76.80
12426;DHT22;6277;49.824;9.562;2023-08-08T06:45:15;17.00;76.70
12426;DHT22;6277;49.824;9.562;2023-08-08T06:47:41;17.00;76.40
12426;DHT22;6277;49.824;9.562;2023-08-08T06:50:07;17.10;76.40
12426;DHT22;6277;49.824;9.562;2023-08-08T06:52:33;17.20;76.30
12426;DHT22;6277;49.824;9.562;2023-08-08T06:54:58;17.30;76.40
12426;DHT22;6277;49.824;9.562;2023-08-08T06:57:24;17.30;76.90
12426;DHT22;6277;49.824;9.562;2023-08-08T06:59:49;17.40;76.10
12426;DHT22;6277;49.824;9.562;2023-08-08T07:02:17;17.40;75.70
12426;DHT22;6277;49.824;9.562;2023-08-08T07:04:43;17.50;75.70
12426;DHT22;6277;49.824;9.562;2023-08-08T07:07:08;17.60;75.70
12426;DHT22;6277;49.824;9.562;2023-08-08T07:09:34;17.60;75.40
12426;DHT22;6277;49.824;9.562;2023-08-08T07:12:00;17.60;75.40
12426;DHT22;6277;49.824;9.562;2023-08-08T07:14:25;17.70;75.40
12426;DHT22;6277;49.824;9.562;2023-08-08T07:16:51;17.80;75.40
12426;DHT22;6277;49.824;9.562;2023-08-08T07:19:16;17.80;75.10
12426;DHT22;6277;49.824;9.562;2023-08-08T07:21:42;17.90;75.40
12426;DHT22;6277;49.824;9.562;2023-08-08T07:24:07;18.00;75.40
12426;DHT22;6277;49.824;9.562;2023-08-08T07:26:33;18.10;75.40
12426;DHT22;6277;49.824;9.562;2023-08-08T07:28:58;18.10;75.20
12426;DHT22;6277;49.824;9.562;2023-08-08T07:31:24;18.20;74.80
12426;DHT22;6277;49.824;9.562;2023-08-08T07:33:50;18.30;74.60
12426;DHT22;6277;49.824;9.562;2023-08-08T07:36:15;18.30;74.10
12426;DHT22;6277;49.824;9.562;2023-08-08T07:38:41;18.40;74.20
12426;DHT22;6277;49.824;9.562;2023-08-08T07:41:06;18.40;74.10
12426;DHT22;6277;49.824;9.562;2023-08-08T07:43:32;18.50;73.90
12426;DHT22;6277;49.824;9.562;2023-08-08T07:45:57;18.60;74.00
12426;DHT22;6277;49.824;9.562;2023-08-08T07:48:23;18.70;73.90
12426;DHT22;6277;49.824;9.562;2023-08-08T07:50:48;18.70;73.80
12426;DHT22;6277;49.824;9.562;2023-08-08T07:53:14;18.80;74.10
12426;DHT22;6277;49.824;9.562;2023-08-08T07:55:39;18.90;72.90
12426;DHT22;6277;49.824;9.562;2023-08-08T07:58:05;19.00;73.00
12426;DHT22;6277;49.824;9.562;2023-08-08T08:00:30;19.10;72.90
12426;DHT22;6277;49.824;9.562;2023-08-08T08:02:56;19.20;72.80
12426;DHT22;6277;49.824;9.562;2023-08-08T08:05:22;19.30;72.40
12426;DHT22;6277;49.824;9.562;2023-08-08T08:07:47;19.40;72.20
12426;DHT22;6277;49.824;9.562;2023-08-08T08:10:13;19.50;72.20
12426;DHT22;6277;49.824;9.562;2023-08-08T08:12:40;19.50;71.70
12426;DHT22;6277;49.824;9.562;2023-08-08T08:15:07;19.50;70.90
12426;DHT22;6277;49.824;9.562;2023-08-08T08:17:33;19.60;71.10
12426;DHT22;6277;49.824;9.562;2023-08-08T08:19:59;19.70;70.80
12426;DHT22;6277;49.824;9.562;2023-08-08T08:22:24;19.70;70.90
12426;DHT22;6277;49.824;9.562;2023-08-08T08:24:50;19.80;70.80
12426;DHT22;6277;49.824;9.562;2023-08-08T08:27:16;19.80;69.30
12426;DHT22;6277;49.824;9.562;2023-08-08T08:29:42;19.90;69.50
12426;DHT22;6277;49.824;9.562;2023-08-08T08:32:08;19.90;68.80
12426;DHT22;6277;49.824;9.562;2023-08-08T08:34:34;19.90;68.70
12426;DHT22;6277;49.824;9.562;2023-08-08T08:36:59;20.00;68.80
12426;DHT22;6277;49.824;9.562;2023-08-08T08:39:25;20.00;68.10
12426;DHT22;6277;49.824;9.562;2023-08-08T08:41:58;20.00;67.90
12426;DHT22;6277;49.824;9.562;2023-08-08T08:44:27;20.00;66.90
12426;DHT22;6277;49.824;9.562;2023-08-08T08:46:55;20.10;66.90
12426;DHT22;6277;49.824;9.562;2023-08-08T08:49:23;20.10;66.90
12426;DHT22;6277;49.824;9.562;2023-08-08T08:51:49;20.10;65.90
12426;DHT22;6277;49.824;9.562;2023-08-08T08:54:15;20.00;65.80
12426;DHT22;6277;49.824;9.562;2023-08-08T08:56:41;20.10;65.10
12426;DHT22;6277;49.824;9.562;2023-08-08T08:59:07;20.10;65.50
12426;DHT22;6277;49.824;9.562;2023-08-08T09:01:33;20.10;65.80
12426;DHT22;6277;49.824;9.562;2023-08-08T09:03:59;20.20;65.80
12426;DHT22;6277;49.824;9.562;2023-08-08T09:06:24;20.30;65.70
12426;DHT22;6277;49.824;9.562;2023-08-08T09:08:50;20.40;65.90
12426;DHT22;6277;49.824;9.562;2023-08-08T09:11:15;20.50;64.90
12426;DHT22;6277;49.824;9.562;2023-08-08T09:13:41;20.60;65.20
12426;DHT22;6277;49.824;9.562;2023-08-08T09:16:07;20.70;65.00
12426;DHT22;6277;49.824;9.562;2023-08-08T09:18:34;20.70;64.60
12426;DHT22;6277;49.824;9.562;2023-08-08T09:21:00;20.80;63.90
12426;DHT22;6277;49.824;9.562;2023-08-08T09:23:25;20.90;63.90
12426;DHT22;6277;49.824;9.562;2023-08-08T09:25:51;20.90;63.80
12426;DHT22;6277;49.824;9.562;2023-08-08T09:28:17;21.00;63.50
12426;DHT22;6277;49.824;9.562;2023-08-08T09:30:43;21.00;62.10
12426;DHT22;6277;49.824;9.562;2023-08-08T09:33:09;21.00;62.40
12426;DHT22;6277;49.824;9.562;2023-08-08T09:35:37;21.00;61.30
12426;DHT22;6277;49.824;9.562;2023-08-08T09:38:03;21.00;61.30
12426;DHT22;6277;49.824;9.562;2023-08-08T09:40:28;21.10;61.00
12426;DHT22;6277;49.824;9.562;2023-08-08T09:42:56;21.10;62.00
12426;DHT22;6277;49.824;9.562;2023-08-08T09:45:22;21.10;61.20
12426;DHT22;6277;49.824;9.562;2023-08-08T09:47:50;21.20;61.40
12426;DHT22;6277;49.824;9.562;2023-08-08T09:50:18;21.20;60.70
12426;DHT22;6277;49.824;9.562;2023-08-08T09:52:44;21.20;60.90
12426;DHT22;6277;49.824;9.562;2023-08-08T09:55:11;21.20;60.20
12426;DHT22;6277;49.824;9.562;2023-08-08T09:57:38;21.30;60.80
12426;DHT22;6277;49.824;9.562;2023-08-08T10:00:05;21.30;60.90
12426;DHT22;6277;49.824;9.562;2023-08-08T10:02:35;21.30;61.00
12426;DHT22;6277;49.824;9.562;2023-08-08T10:05:03;21.40;60.80
12426;DHT22;6277;49.824;9.562;2023-08-08T10:07:29;21.50;60.80
12426;DHT22;6277;49.824;9.562;2023-08-08T10:09:56;21.50;60.60
12426;DHT22;6277;49.824;9.562;2023-08-08T10:12:23;21.60;59.40
12426;DHT22;6277;49.824;9.562;2023-08-08T10:14:51;21.70;60.00
12426;DHT22;6277;49.824;9.562;2023-08-08T10:17:18;21.70;60.00
12426;DHT22;6277;49.824;9.562;2023-08-08T10:19:51;21.80;59.30
12426;DHT22;6277;49.824;9.562;2023-08-08T10:22:21;21.80;58.30
12426;DHT22;6277;49.824;9.562;2023-08-08T10:24:50;21.90;59.10
12426;DHT22;6277;49.824;9.562;2023-08-08T10:27:33;21.90;59.70
12426;DHT22;6277;49.824;9.562;2023-08-08T10:30:07;22.00;57.60
12426;DHT22;6277;49.824;9.562;2023-08-08T10:32:45;22.10;58.50
12426;DHT22;6277;49.824;9.562;2023-08-08T10:35:13;22.10;57.20
12426;DHT22;6277;49.824;9.562;2023-08-08T10:37:39;22.20;58.20
12426;DHT22;6277;49.824;9.562;2023-08-08T10:40:07;22.20;58.30
12426;DHT22;6277;49.824;9.562;2023-08-08T10:42:41;22.20;58.20
12426;DHT22;6277;49.824;9.562;2023-08-08T10:45:11;22.20;56.00
12426;DHT22;6277;49.824;9.562;2023-08-08T10:47:37;22.30;58.30
12426;DHT22;6277;49.824;9.562;2023-08-08T10:50:11;22.30;58.70
12426;DHT22;6277;49.824;9.562;2023-08-08T10:55:26;22.40;56.50
12426;DHT22;6277;49.824;9.562;2023-08-08T10:58:04;22.50;57.20
12426;DHT22;6277;49.824;9.562;2023-08-08T11:00:35;22.60;57.30
12426;DHT22;6277;49.824;9.562;2023-08-08T11:03:02;22.60;56.80
12426;DHT22;6277;49.824;9.562;2023-08-08T11:05:31;22.70;58.00
12426;DHT22;6277;49.824;9.562;2023-08-08T11:07:57;22.70;57.70
12426;DHT22;6277;49.824;9.562;2023-08-08T11:10:23;22.80;57.70
12426;DHT22;6277;49.824;9.562;2023-08-08T11:13:03;22.80;57.70
12426;DHT22;6277;49.824;9.562;2023-08-08T11:15:29;22.90;56.50
12426;DHT22;6277;49.824;9.562;2023-08-08T11:17:56;23.00;56.90
12426;DHT22;6277;49.824;9.562;2023-08-08T11:20:23;23.10;56.10
12426;DHT22;6277;49.824;9.562;2023-08-08T11:22:56;23.10;56.20
12426;DHT22;6277;49.824;9.562;2023-08-08T11:25:22;23.10;56.00
12426;DHT22;6277;49.824;9.562;2023-08-08T11:27:55;23.10;56.80
12426;DHT22;6277;49.824;9.562;2023-08-08T11:30:21;23.20;56.90
12426;DHT22;6277;49.824;9.562;2023-08-08T11:32:48;23.20;56.00
12426;DHT22;6277;49.824;9.562;2023-08-08T11:35:20;23.30;55.20
12426;DHT22;6277;49.824;9.562;2023-08-08T11:37:47;23.30;56.00
12426;DHT22;6277;49.824;9.562;2023-08-08T11:40:14;23.30;56.50
12426;DHT22;6277;49.824;9.562;2023-08-08T11:42:40;23.30;55.80
12426;DHT22;6277;49.824;9.562;2023-08-08T11:45:08;23.30;55.40
12426;DHT22;6277;49.824;9.562;2023-08-08T11:47:35;23.30;54.80
12426;DHT22;6277;49.824;9.562;2023-08-08T11:50:06;23.40;55.50
12426;DHT22;6277;49.824;9.562;2023-08-08T11:52:33;23.40;54.50
12426;DHT22;6277;49.824;9.562;2023-08-08T11:54:59;23.50;55.30
12426;DHT22;6277;49.824;9.562;2023-08-08T11:57:28;23.50;54.50
12426;DHT22;6277;49.824;9.562;2023-08-08T11:59:54;23.50;54.30
12426;DHT22;6277;49.824;9.562;2023-08-08T12:02:20;23.50;54.70
12426;DHT22;6277;49.824;9.562;2023-08-08T12:04:46;23.50;54.30
12426;DHT22;6277;49.824;9.562;2023-08-08T12:07:12;23.60;54.10
12426;DHT22;6277;49.824;9.562;2023-08-08T12:09:38;23.60;53.80
12426;DHT22;6277;49.824;9.562;2023-08-08T12:12:04;23.60;54.30
12426;DHT22;6277;49.824;9.562;2023-08-08T12:14:30;23.60;53.70
12426;DHT22;6277;49.824;9.562;2023-08-08T12:17:00;23.70;53.70
12426;DHT22;6277;49.824;9.562;2023-08-08T12:19:27;23.70;53.00
12426;DHT22;6277;49.824;9.562;2023-08-08T12:21:54;23.70;53.50
12426;DHT22;6277;49.824;9.562;2023-08-08T12:24:19;23.70;53.50
12426;DHT22;6277;49.824;9.562;2023-08-08T12:26:45;23.70;53.40
12426;DHT22;6277;49.824;9.562;2023-08-08T12:29:10;23.70;53.50
12426;DHT22;6277;49.824;9.562;2023-08-08T12:31:37;23.80;53.90
12426;DHT22;6277;49.824;9.562;2023-08-08T12:34:03;23.90;53.70
12426;DHT22;6277;49.824;9.562;2023-08-08T12:36:28;23.90;53.60
12426;DHT22;6277;49.824;9.562;2023-08-08T12:38:54;24.00;52.10
12426;DHT22;6277;49.824;9.562;2023-08-08T12:41:20;24.00;52.80
12426;DHT22;6277;49.824;9.562;2023-08-08T12:43:45;24.00;52.40
12426;DHT22;6277;49.824;9.562;2023-08-08T12:46:11;24.00;52.40
12426;DHT22;6277;49.824;9.562;2023-08-08T12:48:36;24.00;52.60
12426;DHT22;6277;49.824;9.562;2023-08-08T12:51:02;24.00;52.70
12426;DHT22;6277;49.824;9.562;2023-08-08T12:53:28;24.00;52.60
12426;DHT22;6277;49.824;9.562;2023-08-08T12:55:53;24.10;52.90
12426;DHT22;6277;49.824;9.562;2023-08-08T12:58:19;24.10;52.30
12426;DHT22;6277;49.824;9.562;2023-08-08T13:00:44;24.20;52.40
12426;DHT22;6277;49.824;9.562;2023-08-08T13:03:10;24.10;52.10
12426;DHT22;6277;49.824;9.562;2023-08-08T13:05:38;24.20;52.30
12426;DHT22;6277;49.824;9.562;2023-08-08T13:08:04;24.20;52.10
12426;DHT22;6277;49.824;9.562;2023-08-08T13:10:29;24.20;51.90
12426;DHT22;6277;49.824;9.562;2023-08-08T13:12:56;24.20;51.80
12426;DHT22;6277;49.824;9.562;2023-08-08T13:15:21;24.20;51.80
12426;DHT22;6277;49.824;9.562;2023-08-08T13:17:47;24.20;51.80
12426;DHT22;6277;49.824;9.562;2023-08-08T13:20:12;24.30;52.50
12426;DHT22;6277;49.824;9.562;2023-08-08T13:22:38;24.40;52.80
12426;DHT22;6277;49.824;9.562;2023-08-08T13:25:05;24.60;52.90
12426;DHT22;6277;49.824;9.562;2023-08-08T13:27:31;24.80;52.30
12426;DHT22;6277;49.824;9.562;2023-08-08T13:29:57;25.00;51.60
12426;DHT22;6277;49.824;9.562;2023-08-08T13:32:23;25.10;51.40
12426;DHT22;6277;49.824;9.562;2023-08-08T13:34:48;25.20;51.40
12426;DHT22;6277;49.824;9.562;2023-08-08T13:37:15;25.30;51.40
12426;DHT22;6277;49.824;9.562;2023-08-08T13:39:40;25.40;51.00
12426;DHT22;6277;49.824;9.562;2023-08-08T13:42:07;25.40;51.10
12426;DHT22;6277;49.824;9.562;2023-08-08T13:44:34;25.50;50.00
12426;DHT22;6277;49.824;9.562;2023-08-08T13:46:59;25.60;50.10
12426;DHT22;6277;49.824;9.562;2023-08-08T13:49:25;25.60;50.40
12426;DHT22;6277;49.824;9.562;2023-08-08T13:51:52;25.60;50.00
12426;DHT22;6277;49.824;9.562;2023-08-08T13:54:18;25.60;50.00
12426;DHT22;6277;49.824;9.562;2023-08-08T13:56:43;25.70;49.60
12426;DHT22;6277;49.824;9.562;2023-08-08T13:59:09;25.70;49.30
12426;DHT22;6277;49.824;9.562;2023-08-08T14:01:34;25.80;49.00
12426;DHT22;6277;49.824;9.562;2023-08-08T14:04:00;25.90;50.10
12426;DHT22;6277;49.824;9.562;2023-08-08T14:06:26;26.00;49.80
12426;DHT22;6277;49.824;9.562;2023-08-08T14:08:52;26.20;48.30
12426;DHT22;6277;49.824;9.562;2023-08-08T14:11:18;26.20;48.10
12426;DHT22;6277;49.824;9.562;2023-08-08T14:13:43;26.30;48.30
12426;DHT22;6277;49.824;9.562;2023-08-08T14:16:09;26.30;47.80
12426;DHT22;6277;49.824;9.562;2023-08-08T14:18:35;26.30;47.50
12426;DHT22;6277;49.824;9.562;2023-08-08T14:21:00;26.30;47.60
12426;DHT22;6277;49.824;9.562;2023-08-08T14:23:28;26.20;47.30
12426;DHT22;6277;49.824;9.562;2023-08-08T14:25:53;26.10;47.70
12426;DHT22;6277;49.824;9.562;2023-08-08T14:28:19;26.00;47.70
12426;DHT22;6277;49.824;9.562;2023-08-08T14:30:44;25.90;47.30
12426;DHT22;6277;49.824;9.562;2023-08-08T14:33:12;25.80;47.20
12426;DHT22;6277;49.824;9.562;2023-08-08T14:35:37;25.60;45.50
12426;DHT22;6277;49.824;9.562;2023-08-08T14:38:03;25.40;46.40
12426;DHT22;6277;49.824;9.562;2023-08-08T14:40:28;25.10;46.10
12426;DHT22;6277;49.824;9.562;2023-08-08T14:42:54;24.90;45.60
12426;DHT22;6277;49.824;9.562;2023-08-08T14:45:19;24.70;45.70
12426;DHT22;6277;49.824;9.562;2023-08-08T14:47:46;24.50;45.60
12426;DHT22;6277;49.824;9.562;2023-08-08T14:50:12;24.30;46.40
12426;DHT22;6277;49.824;9.562;2023-08-08T14:52:37;24.10;46.30
12426;DHT22;6277;49.824;9.562;2023-08-08T14:55:03;24.00;46.70
12426;DHT22;6277;49.824;9.562;2023-08-08T14:57:29;23.90;47.20
12426;DHT22;6277;49.824;9.562;2023-08-08T14:59:55;23.80;47.00
12426;DHT22;6277;49.824;9.562;2023-08-08T15:02:20;23.70;47.50
12426;DHT22;6277;49.824;9.562;2023-08-08T15:04:46;23.80;48.00
12426;DHT22;6277;49.824;9.562;2023-08-08T15:07:11;23.80;48.10
12426;DHT22;6277;49.824;9.562;2023-08-08T15:09:37;23.90;48.30
12426;DHT22;6277;49.824;9.562;2023-08-08T15:12:04;23.90;48.60
12426;DHT22;6277;49.824;9.562;2023-08-08T15:14:29;24.00;48.40
12426;DHT22;6277;49.824;9.562;2023-08-08T15:16:55;24.10;48.30
12426;DHT22;6277;49.824;9.562;2023-08-08T15:19:22;24.10;48.50
12426;DHT22;6277;49.824;9.562;2023-08-08T15:21:48;24.20;48.50
12426;DHT22;6277;49.824;9.562;2023-08-08T15:24:14;24.30;48.60
12426;DHT22;6277;49.824;9.562;2023-08-08T15:26:40;24.40;48.40
12426;DHT22;6277;49.824;9.562;2023-08-08T15:29:05;24.50;48.60
12426;DHT22;6277;49.824;9.562;2023-08-08T15:31:31;24.60;48.40
12426;DHT22;6277;49.824;9.562;2023-08-08T15:33:58;24.60;48.30
12426;DHT22;6277;49.824;9.562;2023-08-08T15:36:23;24.60;48.00
12426;DHT22;6277;49.824;9.562;2023-08-08T15:38:49;24.60;48.00
12426;DHT22;6277;49.824;9.562;2023-08-08T15:41:15;24.60;47.90